sensor_id;sensor_type;location;lat;lon;timestamp;P1;durP1;ratioP1;P2;durP2;ratioP2
3993;SDS011;2011;48.238;13.948;2023-04-06T00:00:34;9.85;;;4.60;;
3993;SDS011;2011;48.238;13.948;2023-04-06T00:03:02;9.32;;;4.70;;
3993;SDS011;2011;48.238;13.948;2023-04-06T00:05:29;10.57;;;4.60;;
3993;SDS011;2011;48.238;13.948;2023-04-06T00:07:56;16.83;;;5.05;;
3993;SDS011;2011;48.238;13.948;2023-04-06T00:10:25;11.45;;;4.82;;
3993;SDS011;2011;48.238;13.948;2023-04-06T00:12:52;7.85;;;4.72;;
3993;SDS011;2011;48.238;13.948;2023-04-06T00:15:19;8.27;;;4.90;;
3993;SDS011;2011;48.238;13.948;2023-04-06T00:17:46;8.75;;;4.88;;
3993;SDS011;2011;48.238;13.948;2023-04-06T00:20:14;10.13;;;4.93;;
3993;SDS011;2011;48.238;13.948;2023-04-06T00:22:41;9.75;;;5.60;;
3993;SDS011;2011;48.238;13.948;2023-04-06T00:25:08;10.18;;;4.82;;
3993;SDS011;2011;48.238;13.948;2023-04-06T00:27:37;9.80;;;4.07;;
3993;SDS011;2011;48.238;13.948;2023-04-06T00:30:05;13.48;;;5.85;;
3993;SDS011;2011;48.238;13.948;2023-04-06T00:32:33;12.35;;;5.47;;
3993;SDS011;2011;48.238;13.948;2023-04-06T00:35:01;10.63;;;5.07;;
3993;SDS011;2011;48.238;13.948;2023-04-06T00:37:28;10.25;;;4.35;;
3993;SDS011;2011;48.238;13.948;2023-04-06T00:39:55;15.50;;;5.75;;
3993;SDS011;2011;48.238;13.948;2023-04-06T00:42:23;9.23;;;4.45;;
3993;SDS011;2011;48.238;13.948;2023-04-06T00:44:53;7.55;;;4.03;;
3993;SDS011;2011;48.238;13.948;2023-04-06T00:47:20;6.43;;;3.92;;
3993;SDS011;2011;48.238;13.948;2023-04-06T00:49:48;10.57;;;4.60;;
3993;SDS011;2011;48.238;13.948;2023-04-06T00:52:15;15.27;;;4.93;;
3993;SDS011;2011;48.238;13.948;2023-04-06T00:54:42;9.00;;;4.78;;
3993;SDS011;2011;48.238;13.948;2023-04-06T00:57:09;6.38;;;3.80;;
3993;SDS011;2011;48.238;13.948;2023-04-06T00:59:37;8.40;;;3.80;;
3993;SDS011;2011;48.238;13.948;2023-04-06T01:02:06;9.27;;;4.20;;
3993;SDS011;2011;48.238;13.948;2023-04-06T01:04:34;9.43;;;3.70;;
3993;SDS011;2011;48.238;13.948;2023-04-06T01:07:01;8.98;;;4.55;;
3993;SDS011;2011;48.238;13.948;2023-04-06T01:09:28;9.15;;;3.10;;
3993;SDS011;2011;48.238;13.948;2023-04-06T01:11:55;5.43;;;3.80;;
3993;SDS011;2011;48.238;13.948;2023-04-06T01:14:22;10.75;;;4.32;;
3993;SDS011;2011;48.238;13.948;2023-04-06T01:16:50;10.43;;;5.03;;
3993;SDS011;2011;48.238;13.948;2023-04-06T01:19:19;8.95;;;5.05;;
3993;SDS011;2011;48.238;13.948;2023-04-06T01:21:47;13.63;;;5.38;;
3993;SDS011;2011;48.238;13.948;2023-04-06T01:24:16;8.18;;;4.82;;
3993;SDS011;2011;48.238;13.948;2023-04-06T01:26:44;9.73;;;5.57;;
3993;SDS011;2011;48.238;13.948;2023-04-06T01:29:11;11.20;;;5.53;;
3993;SDS011;2011;48.238;13.948;2023-04-06T01:31:39;8.88;;;4.70;;
3993;SDS011;2011;48.238;13.948;2023-04-06T01:34:06;8.75;;;4.78;;
3993;SDS011;2011;48.238;13.948;2023-04-06T01:36:33;10.48;;;5.60;;
3993;SDS011;2011;48.238;13.948;2023-04-06T01:39:00;8.95;;;5.53;;
3993;SDS011;2011;48.238;13.948;2023-04-06T01:41:28;11.70;;;5.60;;
3993;SDS011;2011;48.238;13.948;2023-04-06T01:43:55;9.82;;;5.10;;
3993;SDS011;2011;48.238;13.948;2023-04-06T01:46:23;11.07;;;5.07;;
3993;SDS011;2011;48.238;13.948;2023-04-06T01:48:50;13.45;;;5.75;;
3993;SDS011;2011;48.238;13.948;2023-04-06T01:51:17;13.73;;;5.93;;
3993;SDS011;2011;48.238;13.948;2023-04-06T01:53:44;8.32;;;5.13;;
3993;SDS011;2011;48.238;13.948;2023-04-06T01:56:11;10.23;;;4.40;;
3993;SDS011;2011;48.238;13.948;2023-04-06T01:58:39;13.15;;;5.65;;
3993;SDS011;2011;48.238;13.948;2023-04-06T02:01:06;9.27;;;5.57;;
3993;SDS011;2011;48.238;13.948;2023-04-06T02:03:33;8.30;;;4.68;;
3993;SDS011;2011;48.238;13.948;2023-04-06T02:06:00;12.70;;;5.57;;
3993;SDS011;2011;48.238;13.948;2023-04-06T02:08:27;12.25;;;6.40;;
3993;SDS011;2011;48.238;13.948;2023-04-06T02:10:54;11.10;;;5.70;;
3993;SDS011;2011;48.238;13.948;2023-04-06T02:13:21;11.80;;;5.40;;
3993;SDS011;2011;48.238;13.948;2023-04-06T02:15:49;8.63;;;5.43;;
3993;SDS011;2011;48.238;13.948;2023-04-06T02:18:17;14.60;;;8.07;;
3993;SDS011;2011;48.238;13.948;2023-04-06T02:20:44;13.80;;;7.03;;
3993;SDS011;2011;48.238;13.948;2023-04-06T02:23:11;8.98;;;5.75;;
3993;SDS011;2011;48.238;13.948;2023-04-06T02:25:38;10.90;;;5.15;;
3993;SDS011;2011;48.238;13.948;2023-04-06T02:28:06;8.02;;;5.45;;
3993;SDS011;2011;48.238;13.948;2023-04-06T02:30:33;12.30;;;5.72;;
3993;SDS011;2011;48.238;13.948;2023-04-06T02:33:02;12.68;;;5.60;;
3993;SDS011;2011;48.238;13.948;2023-04-06T02:35:29;10.52;;;6.15;;
3993;SDS011;2011;48.238;13.948;2023-04-06T02:37:57;10.20;;;4.90;;
3993;SDS011;2011;48.238;13.948;2023-04-06T02:40:24;12.48;;;5.95;;
3993;SDS011;2011;48.238;13.948;2023-04-06T02:42:51;9.50;;;5.25;;
3993;SDS011;2011;48.238;13.948;2023-04-06T02:45:18;13.88;;;6.25;;
3993;SDS011;2011;48.238;13.948;2023-04-06T02:47:45;9.30;;;5.05;;
3993;SDS011;2011;48.238;13.948;2023-04-06T02:50:14;11.18;;;5.55;;
3993;SDS011;2011;48.238;13.948;2023-04-06T02:52:41;13.75;;;5.80;;
3993;SDS011;2011;48.238;13.948;2023-04-06T02:55:08;11.15;;;6.60;;
3993;SDS011;2011;48.238;13.948;2023-04-06T02:57:35;8.77;;;5.35;;
3993;SDS011;2011;48.238;13.948;2023-04-06T03:00:03;17.10;;;6.30;;
3993;SDS011;2011;48.238;13.948;2023-04-06T03:02:30;11.02;;;5.78;;
3993;SDS011;2011;48.238;13.948;2023-04-06T03:04:57;9.32;;;5.75;;
3993;SDS011;2011;48.238;13.948;2023-04-06T03:07:26;9.98;;;5.95;;
3993;SDS011;2011;48.238;13.948;2023-04-06T03:09:53;19.40;;;6.45;;
3993;SDS011;2011;48.238;13.948;2023-04-06T03:12:20;15.85;;;7.78;;
3993;SDS011;2011;48.238;13.948;2023-04-06T03:14:47;14.90;;;6.80;;
3993;SDS011;2011;48.238;13.948;2023-04-06T03:17:14;11.40;;;6.47;;
3993;SDS011;2011;48.238;13.948;2023-04-06T03:19:41;11.55;;;6.13;;
3993;SDS011;2011;48.238;13.948;2023-04-06T03:22:08;13.25;;;7.05;;
3993;SDS011;2011;48.238;13.948;2023-04-06T03:24:36;9.25;;;6.15;;
3993;SDS011;2011;48.238;13.948;2023-04-06T03:27:03;12.40;;;6.82;;
3993;SDS011;2011;48.238;13.948;2023-04-06T03:29:31;12.20;;;6.38;;
3993;SDS011;2011;48.238;13.948;2023-04-06T03:31:58;18.10;;;7.85;;
3993;SDS011;2011;48.238;13.948;2023-04-06T03:34:25;12.13;;;6.15;;
3993;SDS011;2011;48.238;13.948;2023-04-06T03:36:52;13.65;;;7.13;;
3993;SDS011;2011;48.238;13.948;2023-04-06T03:39:19;11.35;;;6.28;;
3993;SDS011;2011;48.238;13.948;2023-04-06T03:41:47;13.20;;;6.90;;
3993;SDS011;2011;48.238;13.948;2023-04-06T03:44:14;11.18;;;6.22;;
3993;SDS011;2011;48.238;13.948;2023-04-06T03:46:41;12.65;;;6.57;;
3993;SDS011;2011;48.238;13.948;2023-04-06T03:49:08;12.05;;;6.70;;
3993;SDS011;2011;48.238;13.948;2023-04-06T03:51:35;10.98;;;6.00;;
3993;SDS011;2011;48.238;13.948;2023-04-06T03:54:03;13.48;;;6.78;;
3993;SDS011;2011;48.238;13.948;2023-04-06T03:56:30;15.80;;;7.57;;
3993;SDS011;2011;48.238;13.948;2023-04-06T03:58:58;9.18;;;5.88;;
3993;SDS011;2011;48.238;13.948;2023-04-06T04:01:26;14.18;;;6.85;;
3993;SDS011;2011;48.238;13.948;2023-04-06T04:03:53;17.65;;;7.35;;
3993;SDS011;2011;48.238;13.948;2023-04-06T04:06:20;9.27;;;6.05;;
3993;SDS011;2011;48.238;13.948;2023-04-06T04:08:48;14.27;;;7.50;;
3993;SDS011;2011;48.238;13.948;2023-04-06T04:11:15;9.93;;;5.80;;
3993;SDS011;2011;48.238;13.948;2023-04-06T04:13:42;13.50;;;6.28;;
3993;SDS011;2011;48.238;13.948;2023-04-06T04:16:10;8.32;;;5.63;;
3993;SDS011;2011;48.238;13.948;2023-04-06T04:18:37;20.33;;;5.72;;
3993;SDS011;2011;48.238;13.948;2023-04-06T04:21:04;14.90;;;7.43;;
3993;SDS011;2011;48.238;13.948;2023-04-06T04:23:31;14.38;;;7.50;;
3993;SDS011;2011;48.238;13.948;2023-04-06T04:25:58;12.00;;;6.47;;
3993;SDS011;2011;48.238;13.948;2023-04-06T04:28:25;16.52;;;6.70;;
3993;SDS011;2011;48.238;13.948;2023-04-06T04:30:52;13.82;;;6.40;;
3993;SDS011;2011;48.238;13.948;2023-04-06T04:33:21;14.40;;;6.50;;
3993;SDS011;2011;48.238;13.948;2023-04-06T04:35:49;16.90;;;7.00;;
3993;SDS011;2011;48.238;13.948;2023-04-06T04:38:16;11.65;;;6.82;;
3993;SDS011;2011;48.238;13.948;2023-04-06T04:40:43;20.35;;;7.43;;
3993;SDS011;2011;48.238;13.948;2023-04-06T04:43:10;18.13;;;7.70;;
3993;SDS011;2011;48.238;13.948;2023-04-06T04:45:37;13.50;;;6.97;;
3993;SDS011;2011;48.238;13.948;2023-04-06T04:48:04;9.20;;;6.15;;
3993;SDS011;2011;48.238;13.948;2023-04-06T04:50:34;14.40;;;7.97;;
3993;SDS011;2011;48.238;13.948;2023-04-06T04:53:01;12.05;;;7.60;;
3993;SDS011;2011;48.238;13.948;2023-04-06T04:55:30;12.30;;;7.40;;
3993;SDS011;2011;48.238;13.948;2023-04-06T04:57:57;12.55;;;7.28;;
3993;SDS011;2011;48.238;13.948;2023-04-06T05:00:24;13.20;;;7.60;;
3993;SDS011;2011;48.238;13.948;2023-04-06T05:02:51;11.65;;;7.10;;
3993;SDS011;2011;48.238;13.948;2023-04-06T05:05:19;12.75;;;7.05;;
3993;SDS011;2011;48.238;13.948;2023-04-06T05:07:47;15.00;;;7.45;;
3993;SDS011;2011;48.238;13.948;2023-04-06T05:10:14;12.85;;;7.80;;
3993;SDS011;2011;48.238;13.948;2023-04-06T05:12:41;18.75;;;7.57;;
3993;SDS011;2011;48.238;13.948;2023-04-06T05:15:09;11.02;;;7.22;;
3993;SDS011;2011;48.238;13.948;2023-04-06T05:17:36;11.48;;;6.93;;
3993;SDS011;2011;48.238;13.948;2023-04-06T05:20:03;12.60;;;6.45;;
3993;SDS011;2011;48.238;13.948;2023-04-06T05:22:31;8.27;;;5.40;;
3993;SDS011;2011;48.238;13.948;2023-04-06T05:25:00;13.63;;;6.57;;
3993;SDS011;2011;48.238;13.948;2023-04-06T05:27:28;18.92;;;7.30;;
3993;SDS011;2011;48.238;13.948;2023-04-06T05:29:55;13.57;;;7.32;;
3993;SDS011;2011;48.238;13.948;2023-04-06T05:32:22;15.80;;;7.07;;
3993;SDS011;2011;48.238;13.948;2023-04-06T05:34:49;13.07;;;7.10;;
3993;SDS011;2011;48.238;13.948;2023-04-06T05:37:17;14.27;;;7.38;;
3993;SDS011;2011;48.238;13.948;2023-04-06T05:39:44;12.15;;;7.93;;
3993;SDS011;2011;48.238;13.948;2023-04-06T05:42:12;13.82;;;7.28;;
3993;SDS011;2011;48.238;13.948;2023-04-06T05:44:40;16.90;;;8.00;;
3993;SDS011;2011;48.238;13.948;2023-04-06T05:47:07;12.77;;;7.13;;
3993;SDS011;2011;48.238;13.948;2023-04-06T05:49:34;13.50;;;7.88;;
3993;SDS011;2011;48.238;13.948;2023-04-06T05:52:01;11.15;;;7.47;;
3993;SDS011;2011;48.238;13.948;2023-04-06T05:54:29;12.90;;;7.20;;
3993;SDS011;2011;48.238;13.948;2023-04-06T05:56:56;17.92;;;7.90;;
3993;SDS011;2011;48.238;13.948;2023-04-06T05:59:24;13.45;;;7.57;;
3993;SDS011;2011;48.238;13.948;2023-04-06T06:01:51;13.00;;;7.30;;
3993;SDS011;2011;48.238;13.948;2023-04-06T06:04:18;13.00;;;7.55;;
3993;SDS011;2011;48.238;13.948;2023-04-06T06:06:45;11.48;;;7.50;;
3993;SDS011;2011;48.238;13.948;2023-04-06T06:09:12;15.93;;;7.85;;
3993;SDS011;2011;48.238;13.948;2023-04-06T06:11:39;14.27;;;7.35;;
3993;SDS011;2011;48.238;13.948;2023-04-06T06:14:07;11.93;;;7.57;;
3993;SDS011;2011;48.238;13.948;2023-04-06T06:16:35;13.32;;;7.28;;
3993;SDS011;2011;48.238;13.948;2023-04-06T06:19:02;17.13;;;7.47;;
3993;SDS011;2011;48.238;13.948;2023-04-06T06:21:29;16.08;;;8.25;;
3993;SDS011;2011;48.238;13.948;2023-04-06T06:23:56;11.45;;;7.50;;
3993;SDS011;2011;48.238;13.948;2023-04-06T06:26:24;15.75;;;8.05;;
3993;SDS011;2011;48.238;13.948;2023-04-06T06:28:51;20.77;;;8.80;;
3993;SDS011;2011;48.238;13.948;2023-04-06T06:31:18;15.02;;;8.63;;
3993;SDS011;2011;48.238;13.948;2023-04-06T06:33:49;16.65;;;8.13;;
3993;SDS011;2011;48.238;13.948;2023-04-06T06:36:16;13.55;;;8.15;;
3993;SDS011;2011;48.238;13.948;2023-04-06T06:38:43;18.88;;;7.82;;
3993;SDS011;2011;48.238;13.948;2023-04-06T06:41:11;17.52;;;8.82;;
3993;SDS011;2011;48.238;13.948;2023-04-06T06:43:38;18.65;;;9.20;;
3993;SDS011;2011;48.238;13.948;2023-04-06T06:46:05;18.10;;;9.70;;
3993;SDS011;2011;48.238;13.948;2023-04-06T06:48:32;25.88;;;9.20;;
3993;SDS011;2011;48.238;13.948;2023-04-06T06:51:01;19.48;;;9.13;;
3993;SDS011;2011;48.238;13.948;2023-04-06T06:53:28;22.13;;;10.40;;
3993;SDS011;2011;48.238;13.948;2023-04-06T06:55:55;19.08;;;10.35;;
3993;SDS011;2011;48.238;13.948;2023-04-06T06:58:22;20.27;;;10.25;;
3993;SDS011;2011;48.238;13.948;2023-04-06T07:00:49;23.77;;;9.15;;
3993;SDS011;2011;48.238;13.948;2023-04-06T07:03:16;21.27;;;8.55;;
3993;SDS011;2011;48.238;13.948;2023-04-06T07:05:45;16.35;;;8.82;;
3993;SDS011;2011;48.238;13.948;2023-04-06T07:08:19;12.73;;;7.45;;
3993;SDS011;2011;48.238;13.948;2023-04-06T07:10:46;15.65;;;7.20;;
3993;SDS011;2011;48.238;13.948;2023-04-06T07:13:14;15.45;;;8.10;;
3993;SDS011;2011;48.238;13.948;2023-04-06T07:15:44;18.17;;;8.50;;
3993;SDS011;2011;48.238;13.948;2023-04-06T07:18:11;12.88;;;7.43;;
3993;SDS011;2011;48.238;13.948;2023-04-06T07:20:38;13.68;;;7.95;;
3993;SDS011;2011;48.238;13.948;2023-04-06T07:23:05;27.80;;;8.60;;
3993;SDS011;2011;48.238;13.948;2023-04-06T07:25:34;15.63;;;7.32;;
3993;SDS011;2011;48.238;13.948;2023-04-06T07:28:01;12.57;;;6.15;;
3993;SDS011;2011;48.238;13.948;2023-04-06T07:30:29;16.50;;;6.20;;
3993;SDS011;2011;48.238;13.948;2023-04-06T07:32:56;12.77;;;6.38;;
3993;SDS011;2011;48.238;13.948;2023-04-06T07:35:24;14.73;;;6.93;;
3993;SDS011;2011;48.238;13.948;2023-04-06T07:37:52;11.95;;;6.05;;
3993;SDS011;2011;48.238;13.948;2023-04-06T07:40:19;12.60;;;7.28;;
3993;SDS011;2011;48.238;13.948;2023-04-06T07:42:48;14.70;;;6.10;;
3993;SDS011;2011;48.238;13.948;2023-04-06T07:45:15;10.43;;;6.15;;
3993;SDS011;2011;48.238;13.948;2023-04-06T07:47:42;11.10;;;6.43;;
3993;SDS011;2011;48.238;13.948;2023-04-06T07:50:09;12.77;;;6.30;;
3993;SDS011;2011;48.238;13.948;2023-04-06T07:52:37;13.15;;;6.70;;
3993;SDS011;2011;48.238;13.948;2023-04-06T07:55:04;13.97;;;6.37;;
3993;SDS011;2011;48.238;13.948;2023-04-06T07:57:31;13.80;;;6.10;;
3993;SDS011;2011;48.238;13.948;2023-04-06T08:00:00;12.13;;;6.60;;
3993;SDS011;2011;48.238;13.948;2023-04-06T08:02:28;11.50;;;6.20;;
3993;SDS011;2011;48.238;13.948;2023-04-06T08:04:55;11.00;;;5.70;;
3993;SDS011;2011;48.238;13.948;2023-04-06T08:07:22;8.63;;;5.63;;
3993;SDS011;2011;48.238;13.948;2023-04-06T08:09:50;10.90;;;6.00;;
3993;SDS011;2011;48.238;13.948;2023-04-06T08:12:17;12.13;;;7.30;;
3993;SDS011;2011;48.238;13.948;2023-04-06T08:14:44;10.20;;;6.60;;
3993;SDS011;2011;48.238;13.948;2023-04-06T08:17:13;13.13;;;6.60;;
3993;SDS011;2011;48.238;13.948;2023-04-06T08:19:42;12.53;;;5.80;;
3993;SDS011;2011;48.238;13.948;2023-04-06T08:22:09;11.47;;;6.30;;
3993;SDS011;2011;48.238;13.948;2023-04-06T08:24:36;14.27;;;7.13;;
3993;SDS011;2011;48.238;13.948;2023-04-06T08:27:03;9.73;;;6.27;;
3993;SDS011;2011;48.238;13.948;2023-04-06T08:29:30;8.77;;;5.17;;
3993;SDS011;2011;48.238;13.948;2023-04-06T08:31:57;7.90;;;5.20;;
3993;SDS011;2011;48.238;13.948;2023-04-06T08:34:26;11.83;;;6.30;;
3993;SDS011;2011;48.238;13.948;2023-04-06T08:36:53;9.50;;;6.20;;
3993;SDS011;2011;48.238;13.948;2023-04-06T08:39:20;12.30;;;5.83;;
3993;SDS011;2011;48.238;13.948;2023-04-06T08:41:50;13.30;;;6.60;;
3993;SDS011;2011;48.238;13.948;2023-04-06T08:44:18;15.00;;;6.50;;
3993;SDS011;2011;48.238;13.948;2023-04-06T08:46:45;9.83;;;5.40;;
3993;SDS011;2011;48.238;13.948;2023-04-06T08:49:13;10.17;;;5.30;;
3993;SDS011;2011;48.238;13.948;2023-04-06T08:51:43;8.80;;;4.63;;
3993;SDS011;2011;48.238;13.948;2023-04-06T08:54:10;9.17;;;5.23;;
3993;SDS011;2011;48.238;13.948;2023-04-06T08:56:38;10.80;;;4.80;;
3993;SDS011;2011;48.238;13.948;2023-04-06T08:59:06;11.37;;;5.80;;
3993;SDS011;2011;48.238;13.948;2023-04-06T09:01:35;9.63;;;5.23;;
3993;SDS011;2011;48.238;13.948;2023-04-06T09:04:06;9.27;;;5.30;;
3993;SDS011;2011;48.238;13.948;2023-04-06T09:06:35;8.27;;;5.23;;
3993;SDS011;2011;48.238;13.948;2023-04-06T09:09:04;9.80;;;5.50;;
3993;SDS011;2011;48.238;13.948;2023-04-06T09:11:41;10.60;;;6.17;;
3993;SDS011;2011;48.238;13.948;2023-04-06T09:14:09;9.00;;;5.00;;
3993;SDS011;2011;48.238;13.948;2023-04-06T09:16:38;10.13;;;5.60;;
3993;SDS011;2011;48.238;13.948;2023-04-06T09:19:06;15.70;;;5.87;;
3993;SDS011;2011;48.238;13.948;2023-04-06T09:21:34;10.93;;;5.43;;
3993;SDS011;2011;48.238;13.948;2023-04-06T09:24:02;11.00;;;6.00;;
3993;SDS011;2011;48.238;13.948;2023-04-06T09:26:32;8.93;;;5.10;;
3993;SDS011;2011;48.238;13.948;2023-04-06T09:29:10;9.93;;;4.87;;
3993;SDS011;2011;48.238;13.948;2023-04-06T09:31:47;7.87;;;4.90;;
3993;SDS011;2011;48.238;13.948;2023-04-06T09:34:20;9.10;;;4.83;;
3993;SDS011;2011;48.238;13.948;2023-04-06T09:36:48;7.00;;;4.60;;
3993;SDS011;2011;48.238;13.948;2023-04-06T09:39:20;8.57;;;4.50;;
3993;SDS011;2011;48.238;13.948;2023-04-06T09:41:49;7.87;;;4.90;;
3993;SDS011;2011;48.238;13.948;2023-04-06T09:44:17;8.60;;;4.90;;
3993;SDS011;2011;48.238;13.948;2023-04-06T09:46:45;9.60;;;4.93;;
3993;SDS011;2011;48.238;13.948;2023-04-06T09:49:13;8.63;;;5.33;;
3993;SDS011;2011;48.238;13.948;2023-04-06T09:51:40;11.47;;;5.07;;
3993;SDS011;2011;48.238;13.948;2023-04-06T09:54:11;9.73;;;5.17;;
3993;SDS011;2011;48.238;13.948;2023-04-06T09:56:46;9.20;;;5.17;;
3993;SDS011;2011;48.238;13.948;2023-04-06T09:59:18;9.50;;;4.80;;
3993;SDS011;2011;48.238;13.948;2023-04-06T10:01:51;7.80;;;4.70;;
3993;SDS011;2011;48.238;13.948;2023-04-06T10:04:21;8.40;;;4.70;;
3993;SDS011;2011;48.238;13.948;2023-04-06T10:06:57;8.07;;;4.63;;
3993;SDS011;2011;48.238;13.948;2023-04-06T10:09:27;8.43;;;3.70;;
3993;SDS011;2011;48.238;13.948;2023-04-06T10:12:02;11.13;;;4.40;;
3993;SDS011;2011;48.238;13.948;2023-04-06T10:14:30;11.13;;;4.40;;
3993;SDS011;2011;48.238;13.948;2023-04-06T10:16:59;10.93;;;4.63;;
3993;SDS011;2011;48.238;13.948;2023-04-06T10:19:29;10.50;;;4.33;;
3993;SDS011;2011;48.238;13.948;2023-04-06T10:22:01;8.43;;;4.50;;
3993;SDS011;2011;48.238;13.948;2023-04-06T10:24:30;8.93;;;4.40;;
3993;SDS011;2011;48.238;13.948;2023-04-06T10:26:58;9.07;;;4.57;;
3993;SDS011;2011;48.238;13.948;2023-04-06T10:29:28;10.40;;;4.20;;
3993;SDS011;2011;48.238;13.948;2023-04-06T10:32:08;10.27;;;4.63;;
3993;SDS011;2011;48.238;13.948;2023-04-06T10:34:35;5.53;;;4.17;;
3993;SDS011;2011;48.238;13.948;2023-04-06T10:37:10;7.60;;;4.60;;
3993;SDS011;2011;48.238;13.948;2023-04-06T10:39:45;6.40;;;4.77;;
3993;SDS011;2011;48.238;13.948;2023-04-06T10:42:13;7.47;;;4.20;;
3993;SDS011;2011;48.238;13.948;2023-04-06T10:44:45;7.60;;;4.57;;
3993;SDS011;2011;48.238;13.948;2023-04-06T10:47:16;9.10;;;5.40;;
3993;SDS011;2011;48.238;13.948;2023-04-06T10:49:44;8.10;;;4.53;;
3993;SDS011;2011;48.238;13.948;2023-04-06T10:52:11;6.33;;;3.93;;
3993;SDS011;2011;48.238;13.948;2023-04-06T10:54:41;5.97;;;4.50;;
3993;SDS011;2011;48.238;13.948;2023-04-06T10:57:09;8.57;;;4.27;;
3993;SDS011;2011;48.238;13.948;2023-04-06T10:59:36;7.10;;;4.53;;
3993;SDS011;2011;48.238;13.948;2023-04-06T11:02:09;8.90;;;4.90;;
3993;SDS011;2011;48.238;13.948;2023-04-06T11:04:53;7.63;;;4.63;;
3993;SDS011;2011;48.238;13.948;2023-04-06T11:07:25;10.73;;;5.40;;
3993;SDS011;2011;48.238;13.948;2023-04-06T11:09:54;10.33;;;4.60;;
3993;SDS011;2011;48.238;13.948;2023-04-06T11:12:22;7.40;;;4.13;;
3993;SDS011;2011;48.238;13.948;2023-04-06T11:14:53;10.13;;;5.00;;
3993;SDS011;2011;48.238;13.948;2023-04-06T11:17:27;7.93;;;4.83;;
3993;SDS011;2011;48.238;13.948;2023-04-06T11:19:55;10.93;;;5.70;;
3993;SDS011;2011;48.238;13.948;2023-04-06T11:22:22;9.10;;;4.90;;
3993;SDS011;2011;48.238;13.948;2023-04-06T11:24:49;10.40;;;5.50;;
3993;SDS011;2011;48.238;13.948;2023-04-06T11:27:17;10.20;;;4.93;;
3993;SDS011;2011;48.238;13.948;2023-04-06T11:29:45;7.80;;;4.90;;
3993;SDS011;2011;48.238;13.948;2023-04-06T11:32:19;6.60;;;4.10;;
3993;SDS011;2011;48.238;13.948;2023-04-06T11:34:48;8.43;;;5.10;;
3993;SDS011;2011;48.238;13.948;2023-04-06T11:37:16;6.27;;;4.37;;
3993;SDS011;2011;48.238;13.948;2023-04-06T11:39:46;9.10;;;4.50;;
3993;SDS011;2011;48.238;13.948;2023-04-06T11:42:25;6.67;;;4.40;;
3993;SDS011;2011;48.238;13.948;2023-04-06T11:44:53;9.47;;;5.10;;
3993;SDS011;2011;48.238;13.948;2023-04-06T11:47:28;8.13;;;4.50;;
3993;SDS011;2011;48.238;13.948;2023-04-06T11:50:04;8.30;;;4.63;;
3993;SDS011;2011;48.238;13.948;2023-04-06T11:52:32;6.60;;;4.57;;
3993;SDS011;2011;48.238;13.948;2023-04-06T11:55:09;7.63;;;5.03;;
3993;SDS011;2011;48.238;13.948;2023-04-06T11:57:37;10.27;;;5.03;;
3993;SDS011;2011;48.238;13.948;2023-04-06T12:00:05;8.47;;;5.00;;
3993;SDS011;2011;48.238;13.948;2023-04-06T12:02:33;9.10;;;4.60;;
3993;SDS011;2011;48.238;13.948;2023-04-06T12:05:02;6.60;;;4.50;;
3993;SDS011;2011;48.238;13.948;2023-04-06T12:07:31;8.67;;;4.77;;
3993;SDS011;2011;48.238;13.948;2023-04-06T12:09:58;10.37;;;5.13;;
3993;SDS011;2011;48.238;13.948;2023-04-06T12:12:27;8.07;;;5.20;;
3993;SDS011;2011;48.238;13.948;2023-04-06T12:14:55;6.97;;;4.40;;
3993;SDS011;2011;48.238;13.948;2023-04-06T12:17:22;6.87;;;5.00;;
3993;SDS011;2011;48.238;13.948;2023-04-06T12:19:49;7.43;;;4.50;;
3993;SDS011;2011;48.238;13.948;2023-04-06T12:22:17;9.33;;;5.57;;
3993;SDS011;2011;48.238;13.948;2023-04-06T12:24:45;9.97;;;5.20;;
3993;SDS011;2011;48.238;13.948;2023-04-06T12:27:12;7.67;;;4.77;;
3993;SDS011;2011;48.238;13.948;2023-04-06T12:29:39;8.40;;;4.90;;
3993;SDS011;2011;48.238;13.948;2023-04-06T12:32:06;8.97;;;5.53;;
3993;SDS011;2011;48.238;13.948;2023-04-06T12:34:33;8.33;;;4.43;;
3993;SDS011;2011;48.238;13.948;2023-04-06T12:37:00;8.33;;;5.07;;
3993;SDS011;2011;48.238;13.948;2023-04-06T12:39:29;6.80;;;4.70;;
3993;SDS011;2011;48.238;13.948;2023-04-06T12:41:56;7.93;;;5.07;;
3993;SDS011;2011;48.238;13.948;2023-04-06T12:44:23;6.90;;;4.90;;
3993;SDS011;2011;48.238;13.948;2023-04-06T12:46:50;8.23;;;4.73;;
3993;SDS011;2011;48.238;13.948;2023-04-06T12:49:17;8.80;;;5.00;;
3993;SDS011;2011;48.238;13.948;2023-04-06T12:51:44;10.60;;;4.87;;
3993;SDS011;2011;48.238;13.948;2023-04-06T12:54:12;8.83;;;4.70;;
3993;SDS011;2011;48.238;13.948;2023-04-06T12:56:41;6.33;;;4.10;;
3993;SDS011;2011;48.238;13.948;2023-04-06T12:59:08;8.10;;;4.40;;
3993;SDS011;2011;48.238;13.948;2023-04-06T13:01:35;7.43;;;4.20;;
3993;SDS011;2011;48.238;13.948;2023-04-06T13:04:02;7.70;;;4.60;;
3993;SDS011;2011;48.238;13.948;2023-04-06T13:06:29;7.50;;;4.40;;
3993;SDS011;2011;48.238;13.948;2023-04-06T13:08:56;7.93;;;4.67;;
3993;SDS011;2011;48.238;13.948;2023-04-06T13:11:23;6.67;;;4.50;;
3993;SDS011;2011;48.238;13.948;2023-04-06T13:13:52;6.63;;;3.87;;
3993;SDS011;2011;48.238;13.948;2023-04-06T13:16:20;5.20;;;3.70;;
3993;SDS011;2011;48.238;13.948;2023-04-06T13:18:47;9.07;;;4.57;;
3993;SDS011;2011;48.238;13.948;2023-04-06T13:21:14;9.50;;;5.13;;
3993;SDS011;2011;48.238;13.948;2023-04-06T13:23:43;8.00;;;4.33;;
3993;SDS011;2011;48.238;13.948;2023-04-06T13:26:10;6.47;;;4.83;;
3993;SDS011;2011;48.238;13.948;2023-04-06T13:28:38;6.60;;;4.90;;
3993;SDS011;2011;48.238;13.948;2023-04-06T13:31:06;7.50;;;4.90;;
3993;SDS011;2011;48.238;13.948;2023-04-06T13:33:34;8.57;;;4.20;;
3993;SDS011;2011;48.238;13.948;2023-04-06T13:36:02;5.70;;;3.90;;
3993;SDS011;2011;48.238;13.948;2023-04-06T13:38:30;8.97;;;4.93;;
3993;SDS011;2011;48.238;13.948;2023-04-06T13:40:58;7.63;;;4.20;;
3993;SDS011;2011;48.238;13.948;2023-04-06T13:43:25;6.40;;;3.87;;
3993;SDS011;2011;48.238;13.948;2023-04-06T13:45:53;17.40;;;4.67;;
3993;SDS011;2011;48.238;13.948;2023-04-06T13:48:22;9.40;;;4.70;;
3993;SDS011;2011;48.238;13.948;2023-04-06T13:50:50;6.60;;;4.50;;
3993;SDS011;2011;48.238;13.948;2023-04-06T13:53:17;7.30;;;4.77;;
3993;SDS011;2011;48.238;13.948;2023-04-06T13:55:51;9.67;;;5.60;;
3993;SDS011;2011;48.238;13.948;2023-04-06T13:58:18;11.00;;;5.37;;
3993;SDS011;2011;48.238;13.948;2023-04-06T14:00:45;9.93;;;4.47;;
3993;SDS011;2011;48.238;13.948;2023-04-06T14:03:12;8.70;;;4.80;;
3993;SDS011;2011;48.238;13.948;2023-04-06T14:05:41;7.37;;;4.87;;
3993;SDS011;2011;48.238;13.948;2023-04-06T14:08:09;6.63;;;4.60;;
3993;SDS011;2011;48.238;13.948;2023-04-06T14:10:36;9.80;;;4.30;;
3993;SDS011;2011;48.238;13.948;2023-04-06T14:13:05;7.67;;;4.80;;
3993;SDS011;2011;48.238;13.948;2023-04-06T14:15:32;6.47;;;4.17;;
3993;SDS011;2011;48.238;13.948;2023-04-06T14:18:00;7.97;;;5.30;;
3993;SDS011;2011;48.238;13.948;2023-04-06T14:20:27;13.20;;;5.20;;
3993;SDS011;2011;48.238;13.948;2023-04-06T14:22:56;7.77;;;4.90;;
3993;SDS011;2011;48.238;13.948;2023-04-06T14:25:23;9.37;;;5.53;;
3993;SDS011;2011;48.238;13.948;2023-04-06T14:27:50;9.83;;;5.00;;
3993;SDS011;2011;48.238;13.948;2023-04-06T14:30:17;8.70;;;5.03;;
3993;SDS011;2011;48.238;13.948;2023-04-06T14:32:45;6.93;;;4.73;;
3993;SDS011;2011;48.238;13.948;2023-04-06T14:35:13;9.00;;;5.47;;
3993;SDS011;2011;48.238;13.948;2023-04-06T14:37:40;8.80;;;5.83;;
3993;SDS011;2011;48.238;13.948;2023-04-06T14:40:10;7.13;;;4.57;;
3993;SDS011;2011;48.238;13.948;2023-04-06T14:42:39;9.10;;;5.33;;
3993;SDS011;2011;48.238;13.948;2023-04-06T14:45:10;7.63;;;5.37;;
3993;SDS011;2011;48.238;13.948;2023-04-06T14:47:37;8.60;;;4.90;;
3993;SDS011;2011;48.238;13.948;2023-04-06T14:50:06;7.83;;;4.90;;
3993;SDS011;2011;48.238;13.948;2023-04-06T14:52:36;13.30;;;5.40;;
3993;SDS011;2011;48.238;13.948;2023-04-06T14:55:04;7.50;;;5.10;;
3993;SDS011;2011;48.238;13.948;2023-04-06T14:57:36;10.23;;;5.33;;